Time,TemperatureF,DewpointF,PressureIn,WindDirection,WindDirectionDegrees,WindSpeedMPH,WindSpeedGustMPH,Humidity,HourlyPrecipIn,Conditions,Clouds,dailyrainin,SoftwareType,DateUTC
2013-03-29 00:12:00,40.1,18.3,29.93,East,90,0.0,-999.0,41,-99.99,,,0.00,Acu-Link.com,2013-03-29 04:12:00,
2013-03-29 00:27:00,38.8,18.8,29.93,NW,315,2.2,-999.0,44,-99.99,,,0.00,Acu-Link.com,2013-03-29 04:27:00,
2013-03-29 00:42:00,39.2,18.1,29.93,SW,225,0.0,-999.0,42,-99.99,,,0.00,Acu-Link.com,2013-03-29 04:42:00,
2013-03-29 00:57:00,37.4,19.0,29.93,SW,225,0.0,-999.0,47,-99.99,,,0.00,Acu-Link.com,2013-03-29 04:57:00,
2013-03-29 01:13:00,37.0,18.7,29.93,SW,225,0.0,-999.0,47,-99.99,,,0.00,Acu-Link.com,2013-03-29 05:13:00,
2013-03-29 01:28:00,37.0,18.7,29.94,ESE,112,0.0,-999.0,47,-99.99,,,0.00,Acu-Link.com,2013-03-29 05:28:00,
2013-03-29 01:43:00,37.0,19.2,29.94,NNE,22,0.0,-999.0,48,-99.99,,,0.00,Acu-Link.com,2013-03-29 05:43:00,
2013-03-29 01:59:00,37.6,19.2,29.94,NNE,22,0.0,-999.0,47,-99.99,,,0.00,Acu-Link.com,2013-03-29 05:59:00,
2013-03-29 02:14:00,37.4,19.5,29.94,South,180,0.0,-999.0,48,-99.99,,,0.00,Acu-Link.com,2013-03-29 06:14:00,
2013-03-29 02:29:00,36.7,19.4,29.93,SSE,157,0.0,-999.0,49,-99.99,,,0.00,Acu-Link.com,2013-03-29 06:29:00,
2013-03-29 02:45:00,36.5,19.2,29.94,NNW,337,0.0,-999.0,49,-99.99,,,0.00,Acu-Link.com,2013-03-29 06:45:00,
2013-03-29 03:00:00,36.0,19.2,29.94,East,90,0.0,-999.0,50,-99.99,,,0.00,Acu-Link.com,2013-03-29 07:00:00,
2013-03-29 03:15:00,36.1,19.3,29.93,NW,315,0.0,-999.0,50,-99.99,,,0.00,Acu-Link.com,2013-03-29 07:15:00,
2013-03-29 03:30:00,36.7,19.8,29.94,South,180,0.0,-999.0,50,-99.99,,,0.00,Acu-Link.com,2013-03-29 07:30:00,
2013-03-29 03:45:00,36.7,19.4,29.94,SSW,202,0.0,-999.0,49,-99.99,,,0.00,Acu-Link.com,2013-03-29 07:45:00,
2013-03-29 04:16:00,36.3,19.5,29.94,NNE,22,0.0,-999.0,50,-99.99,,,0.00,Acu-Link.com,2013-03-29 08:16:00,
2013-03-29 04:31:00,36.3,19.9,29.94,North,0,0.0,-999.0,51,-99.99,,,0.00,Acu-Link.com,2013-03-29 08:31:00,
2013-03-29 04:46:00,36.5,19.6,29.94,West,270,1.1,-999.0,50,-99.99,,,0.00,Acu-Link.com,2013-03-29 08:46:00,
2013-03-29 05:01:00,36.0,19.6,29.93,NE,45,0.0,-999.0,51,-99.99,,,0.00,Acu-Link.com,2013-03-29 09:01:00,
2013-03-29 05:16:00,36.0,19.6,29.94,NW,315,0.0,-999.0,51,-99.99,,,0.00,Acu-Link.com,2013-03-29 09:16:00,
2013-03-29 05:32:00,35.1,19.3,29.94,SSW,202,0.0,-999.0,52,-99.99,,,0.00,Acu-Link.com,2013-03-29 09:32:00,
2013-03-29 05:47:00,34.3,19.4,29.94,ESE,112,0.0,-999.0,54,-99.99,,,0.00,Acu-Link.com,2013-03-29 09:47:00,
2013-03-29 06:02:00,34.5,19.2,29.94,ESE,112,0.0,-999.0,53,-99.99,,,0.00,Acu-Link.com,2013-03-29 10:02:00,
2013-03-29 06:17:00,34.9,19.5,29.95,East,90,0.0,-999.0,53,-99.99,,,0.00,Acu-Link.com,2013-03-29 10:17:00,
2013-03-29 06:32:00,34.3,19.4,29.94,NNW,337,0.0,-999.0,54,-99.99,,,0.00,Acu-Link.com,2013-03-29 10:32:00,
2013-03-29 06:47:00,33.1,19.5,29.95,SSE,157,0.0,-999.0,57,-99.99,,,0.00,Acu-Link.com,2013-03-29 10:47:00,
2013-03-29 07:03:00,33.1,19.5,29.95,NNE,22,0.0,-999.0,57,-99.99,,,0.00,Acu-Link.com,2013-03-29 11:03:00,
2013-03-29 07:18:00,32.5,19.0,29.95,SSE,157,0.0,-999.0,57,-99.99,,,0.00,Acu-Link.com,2013-03-29 11:18:00,
2013-03-29 07:33:00,32.0,18.5,29.96,ESE,112,0.0,-999.0,57,-99.99,,,0.00,Acu-Link.com,2013-03-29 11:33:00,
2013-03-29 07:48:00,32.5,19.4,29.96,WSW,247,0.0,-999.0,58,-99.99,,,0.00,Acu-Link.com,2013-03-29 11:48:00,
2013-03-29 08:03:00,33.3,18.9,29.96,SSE,157,0.0,-999.0,55,-99.99,,,0.00,Acu-Link.com,2013-03-29 12:03:00,
2013-03-29 08:18:00,34.2,19.7,29.96,NNW,337,0.0,-999.0,55,-99.99,,,0.00,Acu-Link.com,2013-03-29 12:18:00,
2013-03-29 08:33:00,34.3,19.4,29.96,SW,225,0.0,-999.0,54,-99.99,,,0.00,Acu-Link.com,2013-03-29 12:33:00,
2013-03-29 08:49:00,37.2,19.8,29.96,South,180,0.0,-999.0,49,-99.99,,,0.00,Acu-Link.com,2013-03-29 12:49:00,
2013-03-29 09:04:00,39.6,20.5,29.97,West,270,0.0,-999.0,46,-99.99,,,0.00,Acu-Link.com,2013-03-29 13:04:00,
2013-03-29 09:19:00,40.5,20.3,29.97,SE,135,1.7,-999.0,44,-99.99,,,0.00,Acu-Link.com,2013-03-29 13:19:00,
2013-03-29 09:34:00,42.4,21.0,29.97,SSE,157,2.2,-999.0,42,-99.99,,,0.00,Acu-Link.com,2013-03-29 13:34:00,
2013-03-29 09:49:00,43.3,21.8,29.97,SSW,202,2.7,-999.0,42,-99.99,,,0.00,Acu-Link.com,2013-03-29 13:49:00,
2013-03-29 10:04:00,43.5,21.4,29.97,SSW,202,4.2,-999.0,41,-99.99,,,0.00,Acu-Link.com,2013-03-29 14:04:00,
2013-03-29 10:19:00,44.2,21.4,29.97,SSW,202,2.7,-999.0,40,-99.99,,,0.00,Acu-Link.com,2013-03-29 14:19:00,
2013-03-29 10:35:00,45.5,22.0,29.98,South,180,1.1,-999.0,39,-99.99,,,0.00,Acu-Link.com,2013-03-29 14:35:00,
2013-03-29 10:50:00,48.0,23.0,29.97,NNE,22,2.7,-999.0,37,-99.99,,,0.00,Acu-Link.com,2013-03-29 14:50:00,
2013-03-29 11:05:00,48.9,23.8,29.97,WSW,247,3.2,-999.0,37,-99.99,,,0.00,Acu-Link.com,2013-03-29 15:05:00,
2013-03-29 11:20:00,48.2,22.5,29.97,SW,225,2.7,-999.0,36,-99.99,,,0.00,Acu-Link.com,2013-03-29 15:20:00,
2013-03-29 11:36:00,50.4,23.8,29.96,South,180,3.7,-999.0,35,-99.99,,,0.00,Acu-Link.com,2013-03-29 15:36:00,
2013-03-29 12:06:00,52.9,23.9,29.96,South,180,5.3,-999.0,32,-99.99,,,0.00,Acu-Link.com,2013-03-29 16:06:00,
2013-03-29 12:37:00,55.8,25.6,29.94,South,180,1.7,-999.0,31,-99.99,,,0.00,Acu-Link.com,2013-03-29 16:37:00,
2013-03-29 13:07:00,55.8,24.8,29.93,SSW,202,4.7,-999.0,30,-99.99,,,0.00,Acu-Link.com,2013-03-29 17:07:00,
2013-03-29 13:23:00,56.3,25.3,29.91,South,180,5.3,-999.0,30,-99.99,,,0.00,Acu-Link.com,2013-03-29 17:23:00,
2013-03-29 13:38:00,55.8,24.8,29.91,South,180,6.3,-999.0,30,-99.99,,,0.00,Acu-Link.com,2013-03-29 17:38:00,
2013-03-29 13:53:00,58.1,25.2,29.90,South,180,5.3,-999.0,28,-99.99,,,0.00,Acu-Link.com,2013-03-29 17:53:00,
2013-03-29 14:08:00,58.8,25.8,29.90,SW,225,5.3,-999.0,28,-99.99,,,0.00,Acu-Link.com,2013-03-29 18:08:00,
2013-03-29 14:24:00,58.8,25.8,29.88,SSE,157,6.8,-999.0,28,-99.99,,,0.00,Acu-Link.com,2013-03-29 18:24:00,
2013-03-29 14:39:00,58.6,25.6,29.88,SSE,157,5.3,-999.0,28,-99.99,,,0.00,Acu-Link.com,2013-03-29 18:39:00,
2013-03-29 14:54:00,58.6,24.7,29.87,South,180,5.3,-999.0,27,-99.99,,,0.00,Acu-Link.com,2013-03-29 18:54:00,
2013-03-29 15:09:00,55.6,24.7,29.88,SSW,202,4.2,-999.0,30,-99.99,,,0.00,Acu-Link.com,2013-03-29 19:09:00,
2013-03-29 15:24:00,56.5,26.2,29.87,SW,225,4.7,-999.0,31,-99.99,,,0.00,Acu-Link.com,2013-03-29 19:24:00,
2013-03-29 15:40:00,55.9,26.5,29.87,South,180,4.7,-999.0,32,-99.99,,,0.00,Acu-Link.com,2013-03-29 19:40:00,
2013-03-29 15:55:00,55.6,26.2,29.86,WSW,247,5.3,-999.0,32,-99.99,,,0.00,Acu-Link.com,2013-03-29 19:55:00,
2013-03-29 16:10:00,55.8,26.4,29.86,SW,225,5.8,-999.0,32,-99.99,,,0.00,Acu-Link.com,2013-03-29 20:10:00,
2013-03-29 16:25:00,54.1,26.4,29.86,WSW,247,5.3,-999.0,34,-99.99,,,0.00,Acu-Link.com,2013-03-29 20:25:00,
2013-03-29 17:11:00,53.6,28.6,29.86,WNW,292,1.7,-999.0,38,-99.99,,,0.00,Acu-Link.com,2013-03-29 21:11:00,
2013-03-29 17:27:00,52.5,29.5,29.86,NE,45,4.7,-999.0,41,-99.99,,,0.00,Acu-Link.com,2013-03-29 21:27:00,
2013-03-29 17:42:00,52.7,30.8,29.87,NW,315,4.2,-999.0,43,-99.99,,,0.00,Acu-Link.com,2013-03-29 21:42:00,
2013-03-29 17:57:00,51.3,31.8,29.87,West,270,3.7,-999.0,47,-99.99,,,0.00,Acu-Link.com,2013-03-29 21:57:00,
2013-03-29 18:13:00,50.4,33.0,29.87,NE,45,2.7,-999.0,51,-99.99,,,0.00,Acu-Link.com,2013-03-29 22:13:00,
2013-03-29 18:28:00,49.6,34.1,29.87,NE,45,1.7,-999.0,55,-99.99,,,0.00,Acu-Link.com,2013-03-29 22:28:00,
2013-03-29 18:43:00,49.1,34.5,29.88,NW,315,2.2,-999.0,57,-99.99,,,0.00,Acu-Link.com,2013-03-29 22:43:00,
2013-03-29 18:58:00,48.4,34.3,29.88,NW,315,1.7,-999.0,58,-99.99,,,0.00,Acu-Link.com,2013-03-29 22:58:00,
2013-03-29 19:13:00,48.2,34.6,29.88,NE,45,0.0,-999.0,59,-99.99,,,0.00,Acu-Link.com,2013-03-29 23:13:00,
2013-03-29 19:29:00,47.7,34.5,29.89,SW,225,1.7,-999.0,60,-99.99,,,0.00,Acu-Link.com,2013-03-29 23:29:00,
2013-03-29 19:44:00,47.1,34.4,29.88,West,270,1.7,-999.0,61,-99.99,,,0.00,Acu-Link.com,2013-03-29 23:44:00,
2013-03-29 19:59:00,45.9,34.4,29.88,WNW,292,0.0,-999.0,64,-99.99,,,0.00,Acu-Link.com,2013-03-29 23:59:00,
2013-03-29 20:14:00,45.3,34.2,29.88,NNE,22,1.7,-999.0,65,-99.99,,,0.00,Acu-Link.com,2013-03-30 00:14:00,
2013-03-29 20:30:00,45.0,34.3,29.88,NE,45,2.2,-999.0,66,-99.99,,,0.00,Acu-Link.com,2013-03-30 00:30:00,
2013-03-29 20:45:00,44.4,34.1,29.88,West,270,1.7,-999.0,67,-99.99,,,0.00,Acu-Link.com,2013-03-30 00:45:00,
2013-03-29 21:00:00,43.9,34.4,29.88,NNE,22,4.2,-999.0,69,-99.99,,,0.00,Acu-Link.com,2013-03-30 01:00:00,
2013-03-29 21:15:00,43.5,34.4,29.88,North,0,2.2,-999.0,70,-99.99,,,0.00,Acu-Link.com,2013-03-30 01:15:00,
2013-03-29 21:31:00,43.0,34.6,29.88,NE,45,1.1,-999.0,72,-99.99,,,0.00,Acu-Link.com,2013-03-30 01:31:00,
2013-03-29 21:46:00,42.6,34.6,29.88,NW,315,1.1,-999.0,73,-99.99,,,0.00,Acu-Link.com,2013-03-30 01:46:00,
2013-03-29 22:16:00,42.1,34.4,29.89,SW,225,2.2,-999.0,74,-99.99,,,0.00,Acu-Link.com,2013-03-30 02:16:00,
2013-03-29 22:31:00,41.7,34.4,29.89,NNW,337,2.7,-999.0,75,-99.99,,,0.00,Acu-Link.com,2013-03-30 02:31:00,
2013-03-29 22:46:00,41.7,34.4,29.88,WNW,292,3.2,-999.0,75,-99.99,,,0.00,Acu-Link.com,2013-03-30 02:46:00,
2013-03-29 23:02:00,41.7,34.7,29.88,NNW,337,3.2,-999.0,76,-99.99,,,0.00,Acu-Link.com,2013-03-30 03:02:00,
2013-03-29 23:17:00,41.9,34.9,29.88,NE,45,2.2,-999.0,76,-99.99,,,0.00,Acu-Link.com,2013-03-30 03:17:00,
2013-03-29 23:32:00,42.3,35.0,29.87,NW,315,2.7,-999.0,75,-99.99,,,0.00,Acu-Link.com,2013-03-30 03:32:00,
2013-03-29 23:48:00,41.9,34.9,29.88,NE,45,3.7,-999.0,76,-99.99,,,0.00,Acu-Link.com,2013-03-30 03:48:00,